Terminal Aerodrome Forecast
Issued by NWS Spokane, WA

Home | Current Version | Previous Version | Text Only | Print | Product List | Glossary On
Versions: 1 2 3 4 5 6 7 8 9 10 11 12 13 14 15 16 17 18 19 20 21 22 23 24 25 26 27 28 29 30 31 32 33 34 35 36 37 38 39 40 41 42 43 44 45 46
000
FTUS46 KOTX 171739
TAFGEG
TAF
KGEG 171739Z 1718/1818 07004KT 1/4SM FG VV001
     FM171930 08007KT 2SM BR BKN003 OVC060
     FM172100 09007KT P6SM SCT035 BKN050 OVC100
     FM180500 14010KT 6SM -RA BR OVC050
     FM180700 17008KT 4SM -RA BR OVC015 WS015/23040KT
     FM181300 19012KT 3SM -RA BR OVC008=

USA.gov is the U.S. government's official web portal to all federal, state and local government web resources and services.